sensor_id;sensor_type;location;lat;lon;timestamp;temperature;humidity
14555;DHT22;7364;50.870;4.722;2023-07-31T00:00:23;17.70;99.90
14555;DHT22;7364;50.870;4.722;2023-07-31T00:02:52;17.80;99.90
14555;DHT22;7364;50.870;4.722;2023-07-31T00:05:21;17.90;99.90
14555;DHT22;7364;50.870;4.722;2023-07-31T00:07:48;17.90;99.90
14555;DHT22;7364;50.870;4.722;2023-07-31T00:10:16;17.90;99.90
14555;DHT22;7364;50.870;4.722;2023-07-31T00:12:44;18.10;99.90
14555;DHT22;7364;50.870;4.722;2023-07-31T00:15:12;18.10;99.90
14555;DHT22;7364;50.870;4.722;2023-07-31T00:17:40;18.10;99.90
14555;DHT22;7364;50.870;4.722;2023-07-31T00:20:08;18.10;99.90
14555;DHT22;7364;50.870;4.722;2023-07-31T00:22:37;18.10;99.90
14555;DHT22;7364;50.870;4.722;2023-07-31T00:25:04;18.00;99.90
14555;DHT22;7364;50.870;4.722;2023-07-31T00:27:32;18.10;99.90
14555;DHT22;7364;50.870;4.722;2023-07-31T00:29:59;18.00;99.90
14555;DHT22;7364;50.870;4.722;2023-07-31T00:32:27;18.10;99.90
14555;DHT22;7364;50.870;4.722;2023-07-31T00:34:54;18.10;99.90
14555;DHT22;7364;50.870;4.722;2023-07-31T00:37:21;18.00;99.90
14555;DHT22;7364;50.870;4.722;2023-07-31T00:39:50;18.00;99.90
14555;DHT22;7364;50.870;4.722;2023-07-31T00:42:17;18.20;99.90
14555;DHT22;7364;50.870;4.722;2023-07-31T00:44:47;18.20;99.90
14555;DHT22;7364;50.870;4.722;2023-07-31T00:47:14;18.30;99.90
14555;DHT22;7364;50.870;4.722;2023-07-31T00:49:42;18.40;99.90
14555;DHT22;7364;50.870;4.722;2023-07-31T00:52:09;18.50;99.90
14555;DHT22;7364;50.870;4.722;2023-07-31T00:54:37;18.70;99.90
14555;DHT22;7364;50.870;4.722;2023-07-31T00:57:06;18.60;99.90
14555;DHT22;7364;50.870;4.722;2023-07-31T00:59:34;18.70;99.90
14555;DHT22;7364;50.870;4.722;2023-07-31T01:02:03;18.60;99.90
14555;DHT22;7364;50.870;4.722;2023-07-31T01:04:31;18.60;99.90
14555;DHT22;7364;50.870;4.722;2023-07-31T01:07:04;18.40;99.90
14555;DHT22;7364;50.870;4.722;2023-07-31T01:09:40;18.30;99.90
14555;DHT22;7364;50.870;4.722;2023-07-31T01:12:12;18.20;99.90
14555;DHT22;7364;50.870;4.722;2023-07-31T01:14:42;18.10;99.90
14555;DHT22;7364;50.870;4.722;2023-07-31T01:17:17;18.20;99.90
14555;DHT22;7364;50.870;4.722;2023-07-31T01:19:45;18.10;99.90
14555;DHT22;7364;50.870;4.722;2023-07-31T01:22:29;18.10;99.90
14555;DHT22;7364;50.870;4.722;2023-07-31T01:25:11;18.10;99.90
14555;DHT22;7364;50.870;4.722;2023-07-31T01:27:53;18.10;99.90
14555;DHT22;7364;50.870;4.722;2023-07-31T01:30:27;17.90;99.90
14555;DHT22;7364;50.870;4.722;2023-07-31T01:32:56;17.90;99.90
14555;DHT22;7364;50.870;4.722;2023-07-31T01:35:24;18.00;99.90
14555;DHT22;7364;50.870;4.722;2023-07-31T01:37:52;18.10;99.90
14555;DHT22;7364;50.870;4.722;2023-07-31T01:40:21;18.10;99.90
14555;DHT22;7364;50.870;4.722;2023-07-31T01:42:50;18.20;99.90
14555;DHT22;7364;50.870;4.722;2023-07-31T01:45:18;18.20;99.90
14555;DHT22;7364;50.870;4.722;2023-07-31T01:47:45;18.20;99.90
14555;DHT22;7364;50.870;4.722;2023-07-31T01:50:13;18.20;99.90
14555;DHT22;7364;50.870;4.722;2023-07-31T01:52:40;18.10;99.90
14555;DHT22;7364;50.870;4.722;2023-07-31T01:55:08;18.20;99.90
14555;DHT22;7364;50.870;4.722;2023-07-31T01:57:37;18.20;99.90
14555;DHT22;7364;50.870;4.722;2023-07-31T02:00:07;18.20;99.90
14555;DHT22;7364;50.870;4.722;2023-07-31T02:02:34;18.30;99.90
14555;DHT22;7364;50.870;4.722;2023-07-31T02:05:01;18.40;99.90
14555;DHT22;7364;50.870;4.722;2023-07-31T02:07:29;18.40;99.90
14555;DHT22;7364;50.870;4.722;2023-07-31T02:09:57;18.50;99.90
14555;DHT22;7364;50.870;4.722;2023-07-31T02:12:25;18.60;99.90
14555;DHT22;7364;50.870;4.722;2023-07-31T02:14:52;18.60;99.90
14555;DHT22;7364;50.870;4.722;2023-07-31T02:17:21;18.60;99.90
14555;DHT22;7364;50.870;4.722;2023-07-31T02:19:48;18.70;99.90
14555;DHT22;7364;50.870;4.722;2023-07-31T02:22:15;18.40;99.90
14555;DHT22;7364;50.870;4.722;2023-07-31T02:24:45;18.30;99.90
14555;DHT22;7364;50.870;4.722;2023-07-31T02:27:12;18.50;99.90
14555;DHT22;7364;50.870;4.722;2023-07-31T02:29:40;18.40;99.90
14555;DHT22;7364;50.870;4.722;2023-07-31T02:32:07;18.40;99.90
14555;DHT22;7364;50.870;4.722;2023-07-31T02:34:36;18.50;99.90
14555;DHT22;7364;50.870;4.722;2023-07-31T02:37:04;18.50;99.90
14555;DHT22;7364;50.870;4.722;2023-07-31T02:39:31;18.60;99.90
14555;DHT22;7364;50.870;4.722;2023-07-31T02:41:59;18.70;99.90
14555;DHT22;7364;50.870;4.722;2023-07-31T02:44:26;18.50;99.90
14555;DHT22;7364;50.870;4.722;2023-07-31T02:46:54;18.60;99.90
14555;DHT22;7364;50.870;4.722;2023-07-31T02:49:21;18.60;99.90
14555;DHT22;7364;50.870;4.722;2023-07-31T02:51:50;18.80;99.90
14555;DHT22;7364;50.870;4.722;2023-07-31T02:54:17;18.70;99.90
14555;DHT22;7364;50.870;4.722;2023-07-31T02:56:46;18.80;99.90
14555;DHT22;7364;50.870;4.722;2023-07-31T02:59:14;18.90;99.90
14555;DHT22;7364;50.870;4.722;2023-07-31T03:01:41;18.90;99.90
14555;DHT22;7364;50.870;4.722;2023-07-31T03:04:09;18.90;99.90
14555;DHT22;7364;50.870;4.722;2023-07-31T03:06:36;18.80;99.90
14555;DHT22;7364;50.870;4.722;2023-07-31T03:09:05;18.80;99.90
14555;DHT22;7364;50.870;4.722;2023-07-31T03:11:32;18.70;99.90
14555;DHT22;7364;50.870;4.722;2023-07-31T03:13:59;18.80;99.90
14555;DHT22;7364;50.870;4.722;2023-07-31T03:16:29;18.80;99.90
14555;DHT22;7364;50.870;4.722;2023-07-31T03:18:56;18.90;99.90
14555;DHT22;7364;50.870;4.722;2023-07-31T03:21:24;18.90;99.90
14555;DHT22;7364;50.870;4.722;2023-07-31T03:23:51;18.80;99.90
14555;DHT22;7364;50.870;4.722;2023-07-31T03:26:20;18.70;99.90
14555;DHT22;7364;50.870;4.722;2023-07-31T03:28:47;18.70;99.90
14555;DHT22;7364;50.870;4.722;2023-07-31T03:31:15;18.70;99.90
14555;DHT22;7364;50.870;4.722;2023-07-31T03:33:42;18.70;99.90
14555;DHT22;7364;50.870;4.722;2023-07-31T03:36:10;18.80;99.90
14555;DHT22;7364;50.870;4.722;2023-07-31T03:38:37;18.90;99.90
14555;DHT22;7364;50.870;4.722;2023-07-31T03:41:04;19.00;99.90
14555;DHT22;7364;50.870;4.722;2023-07-31T03:43:34;18.80;99.90
14555;DHT22;7364;50.870;4.722;2023-07-31T03:46:01;18.90;99.90
14555;DHT22;7364;50.870;4.722;2023-07-31T03:48:29;18.70;99.90
14555;DHT22;7364;50.870;4.722;2023-07-31T03:50:56;18.60;99.90
14555;DHT22;7364;50.870;4.722;2023-07-31T03:53:24;18.60;99.90
14555;DHT22;7364;50.870;4.722;2023-07-31T03:55:54;18.40;99.90
14555;DHT22;7364;50.870;4.722;2023-07-31T03:58:21;18.50;99.90
14555;DHT22;7364;50.870;4.722;2023-07-31T04:00:50;18.40;99.90
14555;DHT22;7364;50.870;4.722;2023-07-31T04:03:17;18.50;99.90
14555;DHT22;7364;50.870;4.722;2023-07-31T04:05:45;18.60;99.90
14555;DHT22;7364;50.870;4.722;2023-07-31T04:08:15;18.50;99.90
14555;DHT22;7364;50.870;4.722;2023-07-31T04:10:42;18.60;99.90
14555;DHT22;7364;50.870;4.722;2023-07-31T04:13:09;18.60;99.90
14555;DHT22;7364;50.870;4.722;2023-07-31T04:15:37;18.50;99.90
14555;DHT22;7364;50.870;4.722;2023-07-31T04:18:09;18.40;99.90
14555;DHT22;7364;50.870;4.722;2023-07-31T04:20:36;18.50;99.90
14555;DHT22;7364;50.870;4.722;2023-07-31T04:23:03;18.40;99.90
14555;DHT22;7364;50.870;4.722;2023-07-31T04:25:30;18.20;99.90
14555;DHT22;7364;50.870;4.722;2023-07-31T04:27:58;18.10;99.90
14555;DHT22;7364;50.870;4.722;2023-07-31T04:30:25;18.10;99.90
14555;DHT22;7364;50.870;4.722;2023-07-31T04:32:52;18.10;99.90
14555;DHT22;7364;50.870;4.722;2023-07-31T04:35:21;18.00;99.90
14555;DHT22;7364;50.870;4.722;2023-07-31T04:37:48;18.10;99.90
14555;DHT22;7364;50.870;4.722;2023-07-31T04:40:16;18.10;99.90
14555;DHT22;7364;50.870;4.722;2023-07-31T04:42:43;18.10;99.90
14555;DHT22;7364;50.870;4.722;2023-07-31T04:45:11;18.00;99.90
14555;DHT22;7364;50.870;4.722;2023-07-31T04:47:38;18.10;99.90
14555;DHT22;7364;50.870;4.722;2023-07-31T04:50:06;18.20;99.90
14555;DHT22;7364;50.870;4.722;2023-07-31T04:52:35;18.20;99.90
14555;DHT22;7364;50.870;4.722;2023-07-31T04:55:02;18.10;99.90
14555;DHT22;7364;50.870;4.722;2023-07-31T04:57:30;18.10;99.90
14555;DHT22;7364;50.870;4.722;2023-07-31T04:59:57;18.10;99.90
14555;DHT22;7364;50.870;4.722;2023-07-31T05:02:24;18.10;99.90
14555;DHT22;7364;50.870;4.722;2023-07-31T05:04:51;18.00;99.90
14555;DHT22;7364;50.870;4.722;2023-07-31T05:07:19;17.90;99.90
14555;DHT22;7364;50.870;4.722;2023-07-31T05:09:47;18.00;99.90
14555;DHT22;7364;50.870;4.722;2023-07-31T05:12:15;18.00;99.90
14555;DHT22;7364;50.870;4.722;2023-07-31T05:14:42;18.00;99.90
14555;DHT22;7364;50.870;4.722;2023-07-31T05:17:10;18.00;99.90
14555;DHT22;7364;50.870;4.722;2023-07-31T05:19:37;18.00;99.90
14555;DHT22;7364;50.870;4.722;2023-07-31T05:22:05;18.00;99.90
14555;DHT22;7364;50.870;4.722;2023-07-31T05:24:32;17.90;99.90
14555;DHT22;7364;50.870;4.722;2023-07-31T05:27:01;18.00;99.90
14555;DHT22;7364;50.870;4.722;2023-07-31T05:29:28;18.00;99.90
14555;DHT22;7364;50.870;4.722;2023-07-31T05:31:55;18.00;99.90
14555;DHT22;7364;50.870;4.722;2023-07-31T05:34:23;17.90;99.90
14555;DHT22;7364;50.870;4.722;2023-07-31T05:36:50;17.90;99.90
14555;DHT22;7364;50.870;4.722;2023-07-31T05:39:17;17.80;99.90
14555;DHT22;7364;50.870;4.722;2023-07-31T05:41:45;17.80;99.90
14555;DHT22;7364;50.870;4.722;2023-07-31T05:44:14;17.70;99.90
14555;DHT22;7364;50.870;4.722;2023-07-31T05:46:41;17.50;99.90
14555;DHT22;7364;50.870;4.722;2023-07-31T05:49:08;17.50;99.90
14555;DHT22;7364;50.870;4.722;2023-07-31T05:51:35;17.50;99.90
14555;DHT22;7364;50.870;4.722;2023-07-31T05:54:03;17.30;99.90
14555;DHT22;7364;50.870;4.722;2023-07-31T05:56:30;17.40;99.90
14555;DHT22;7364;50.870;4.722;2023-07-31T05:58:59;17.40;99.90
14555;DHT22;7364;50.870;4.722;2023-07-31T06:01:28;17.40;99.90
14555;DHT22;7364;50.870;4.722;2023-07-31T06:03:55;17.50;99.90
14555;DHT22;7364;50.870;4.722;2023-07-31T06:06:22;17.60;99.90
14555;DHT22;7364;50.870;4.722;2023-07-31T06:08:49;17.50;99.90
14555;DHT22;7364;50.870;4.722;2023-07-31T06:11:17;17.50;99.90
14555;DHT22;7364;50.870;4.722;2023-07-31T06:13:44;17.40;99.90
14555;DHT22;7364;50.870;4.722;2023-07-31T06:16:12;17.50;99.90
14555;DHT22;7364;50.870;4.722;2023-07-31T06:18:41;17.40;99.90
14555;DHT22;7364;50.870;4.722;2023-07-31T06:21:09;17.30;99.90
14555;DHT22;7364;50.870;4.722;2023-07-31T06:23:36;17.40;99.90
14555;DHT22;7364;50.870;4.722;2023-07-31T06:26:04;17.50;99.90
14555;DHT22;7364;50.870;4.722;2023-07-31T06:28:32;17.50;99.90
14555;DHT22;7364;50.870;4.722;2023-07-31T06:30:59;17.50;99.90
14555;DHT22;7364;50.870;4.722;2023-07-31T06:33:27;17.50;99.90
14555;DHT22;7364;50.870;4.722;2023-07-31T06:35:55;17.60;99.90
14555;DHT22;7364;50.870;4.722;2023-07-31T06:38:25;17.60;99.90
14555;DHT22;7364;50.870;4.722;2023-07-31T06:40:52;17.70;99.90
14555;DHT22;7364;50.870;4.722;2023-07-31T06:43:20;17.80;99.90
14555;DHT22;7364;50.870;4.722;2023-07-31T06:45:47;17.80;99.90
14555;DHT22;7364;50.870;4.722;2023-07-31T06:48:17;17.80;99.90
14555;DHT22;7364;50.870;4.722;2023-07-31T06:50:45;17.90;99.90
14555;DHT22;7364;50.870;4.722;2023-07-31T06:53:13;17.90;99.90
14555;DHT22;7364;50.870;4.722;2023-07-31T06:55:40;18.00;99.90
14555;DHT22;7364;50.870;4.722;2023-07-31T06:58:08;18.00;99.90
14555;DHT22;7364;50.870;4.722;2023-07-31T07:00:35;17.90;99.90
14555;DHT22;7364;50.870;4.722;2023-07-31T07:03:02;18.00;99.90
14555;DHT22;7364;50.870;4.722;2023-07-31T07:05:30;18.10;99.90
14555;DHT22;7364;50.870;4.722;2023-07-31T07:07:58;18.20;99.90
14555;DHT22;7364;50.870;4.722;2023-07-31T07:10:27;18.30;99.90
14555;DHT22;7364;50.870;4.722;2023-07-31T07:12:54;18.30;99.90
14555;DHT22;7364;50.870;4.722;2023-07-31T07:15:22;18.20;99.90
14555;DHT22;7364;50.870;4.722;2023-07-31T07:17:49;18.30;99.90
14555;DHT22;7364;50.870;4.722;2023-07-31T07:20:17;18.30;99.90
14555;DHT22;7364;50.870;4.722;2023-07-31T07:22:45;18.40;99.90
14555;DHT22;7364;50.870;4.722;2023-07-31T07:25:13;18.40;99.90
14555;DHT22;7364;50.870;4.722;2023-07-31T07:27:42;18.50;99.90
14555;DHT22;7364;50.870;4.722;2023-07-31T07:30:09;18.60;99.90
14555;DHT22;7364;50.870;4.722;2023-07-31T07:32:37;18.50;99.90
14555;DHT22;7364;50.870;4.722;2023-07-31T07:35:05;18.70;99.90
14555;DHT22;7364;50.870;4.722;2023-07-31T07:37:32;18.80;99.90
14555;DHT22;7364;50.870;4.722;2023-07-31T07:40:00;19.10;99.90
14555;DHT22;7364;50.870;4.722;2023-07-31T07:42:27;19.30;99.90
14555;DHT22;7364;50.870;4.722;2023-07-31T07:44:55;19.30;99.90
14555;DHT22;7364;50.870;4.722;2023-07-31T07:47:23;19.20;99.90
14555;DHT22;7364;50.870;4.722;2023-07-31T07:49:50;19.00;99.90
14555;DHT22;7364;50.870;4.722;2023-07-31T07:52:17;19.00;99.90
14555;DHT22;7364;50.870;4.722;2023-07-31T07:54:44;19.10;99.90
14555;DHT22;7364;50.870;4.722;2023-07-31T07:57:12;19.30;99.90
14555;DHT22;7364;50.870;4.722;2023-07-31T07:59:39;19.30;99.90
14555;DHT22;7364;50.870;4.722;2023-07-31T08:02:08;19.10;99.90
14555;DHT22;7364;50.870;4.722;2023-07-31T08:04:35;19.10;99.90
14555;DHT22;7364;50.870;4.722;2023-07-31T08:07:03;19.00;99.90
14555;DHT22;7364;50.870;4.722;2023-07-31T08:09:30;19.00;99.90
14555;DHT22;7364;50.870;4.722;2023-07-31T08:11:57;19.20;99.90
14555;DHT22;7364;50.870;4.722;2023-07-31T08:14:29;19.40;99.90
14555;DHT22;7364;50.870;4.722;2023-07-31T08:16:56;19.40;99.90
14555;DHT22;7364;50.870;4.722;2023-07-31T08:19:25;19.30;99.90
14555;DHT22;7364;50.870;4.722;2023-07-31T08:21:52;19.30;99.90
14555;DHT22;7364;50.870;4.722;2023-07-31T08:24:19;19.40;99.90
14555;DHT22;7364;50.870;4.722;2023-07-31T08:26:47;19.50;99.90
14555;DHT22;7364;50.870;4.722;2023-07-31T08:29:15;19.60;99.90
14555;DHT22;7364;50.870;4.722;2023-07-31T08:31:42;19.70;99.90
14555;DHT22;7364;50.870;4.722;2023-07-31T08:34:09;19.80;99.90
14555;DHT22;7364;50.870;4.722;2023-07-31T08:36:38;19.70;99.90
14555;DHT22;7364;50.870;4.722;2023-07-31T08:39:05;19.80;99.90
14555;DHT22;7364;50.870;4.722;2023-07-31T08:41:37;19.60;99.90
14555;DHT22;7364;50.870;4.722;2023-07-31T08:44:06;19.80;99.90
14555;DHT22;7364;50.870;4.722;2023-07-31T08:46:34;19.90;99.90
14555;DHT22;7364;50.870;4.722;2023-07-31T08:49:04;19.90;99.90
14555;DHT22;7364;50.870;4.722;2023-07-31T08:51:33;19.80;99.90
14555;DHT22;7364;50.870;4.722;2023-07-31T08:54:02;19.80;99.90
14555;DHT22;7364;50.870;4.722;2023-07-31T08:56:32;20.00;99.90
14555;DHT22;7364;50.870;4.722;2023-07-31T08:59:02;20.20;99.90
14555;DHT22;7364;50.870;4.722;2023-07-31T09:01:35;20.20;99.90
14555;DHT22;7364;50.870;4.722;2023-07-31T09:04:04;20.20;99.90
14555;DHT22;7364;50.870;4.722;2023-07-31T09:06:32;20.20;99.90
14555;DHT22;7364;50.870;4.722;2023-07-31T09:09:02;20.20;99.90
14555;DHT22;7364;50.870;4.722;2023-07-31T09:11:30;20.30;99.90
14555;DHT22;7364;50.870;4.722;2023-07-31T09:13:58;20.20;99.90
14555;DHT22;7364;50.870;4.722;2023-07-31T09:16:28;20.10;99.90
14555;DHT22;7364;50.870;4.722;2023-07-31T09:18:58;19.90;99.90
14555;DHT22;7364;50.870;4.722;2023-07-31T09:21:28;20.10;99.90
14555;DHT22;7364;50.870;4.722;2023-07-31T09:23:55;20.20;99.90
14555;DHT22;7364;50.870;4.722;2023-07-31T09:26:31;20.10;99.90
14555;DHT22;7364;50.870;4.722;2023-07-31T09:28:58;20.00;99.90
14555;DHT22;7364;50.870;4.722;2023-07-31T09:31:33;19.90;99.90
14555;DHT22;7364;50.870;4.722;2023-07-31T09:34:00;19.90;99.90
14555;DHT22;7364;50.870;4.722;2023-07-31T09:36:29;19.90;99.90
14555;DHT22;7364;50.870;4.722;2023-07-31T09:39:02;20.20;99.90
14555;DHT22;7364;50.870;4.722;2023-07-31T09:41:31;20.40;99.90
14555;DHT22;7364;50.870;4.722;2023-07-31T09:44:03;20.50;99.90
14555;DHT22;7364;50.870;4.722;2023-07-31T09:46:31;20.60;99.90
14555;DHT22;7364;50.870;4.722;2023-07-31T09:49:08;20.70;99.90
14555;DHT22;7364;50.870;4.722;2023-07-31T09:51:36;21.10;99.90
14555;DHT22;7364;50.870;4.722;2023-07-31T09:54:11;21.40;99.90
14555;DHT22;7364;50.870;4.722;2023-07-31T09:56:42;21.30;99.90
14555;DHT22;7364;50.870;4.722;2023-07-31T09:59:12;21.30;99.90
14555;DHT22;7364;50.870;4.722;2023-07-31T10:01:41;21.30;99.90
14555;DHT22;7364;50.870;4.722;2023-07-31T10:04:09;21.30;99.90
14555;DHT22;7364;50.870;4.722;2023-07-31T10:06:38;21.30;99.90
14555;DHT22;7364;50.870;4.722;2023-07-31T10:09:07;21.20;99.90
14555;DHT22;7364;50.870;4.722;2023-07-31T10:11:41;21.00;99.90
14555;DHT22;7364;50.870;4.722;2023-07-31T10:14:11;21.00;99.90
14555;DHT22;7364;50.870;4.722;2023-07-31T10:16:40;20.80;99.90
14555;DHT22;7364;50.870;4.722;2023-07-31T10:19:09;21.10;99.90
14555;DHT22;7364;50.870;4.722;2023-07-31T10:21:37;21.50;99.90
14555;DHT22;7364;50.870;4.722;2023-07-31T10:24:05;21.50;99.90
14555;DHT22;7364;50.870;4.722;2023-07-31T10:26:35;21.60;99.90
14555;DHT22;7364;50.870;4.722;2023-07-31T10:29:05;21.70;99.90
14555;DHT22;7364;50.870;4.722;2023-07-31T10:31:35;21.60;99.90
14555;DHT22;7364;50.870;4.722;2023-07-31T10:34:03;21.90;99.90
14555;DHT22;7364;50.870;4.722;2023-07-31T10:36:30;21.90;99.90
14555;DHT22;7364;50.870;4.722;2023-07-31T10:38:58;21.90;99.90
14555;DHT22;7364;50.870;4.722;2023-07-31T10:41:29;22.00;99.90
14555;DHT22;7364;50.870;4.722;2023-07-31T10:43:58;22.50;99.90
14555;DHT22;7364;50.870;4.722;2023-07-31T10:46:28;22.70;99.90
14555;DHT22;7364;50.870;4.722;2023-07-31T10:49:01;22.90;99.90
14555;DHT22;7364;50.870;4.722;2023-07-31T10:51:35;22.90;99.90
14555;DHT22;7364;50.870;4.722;2023-07-31T10:54:13;22.70;99.90
14555;DHT22;7364;50.870;4.722;2023-07-31T10:56:45;22.40;99.90
14555;DHT22;7364;50.870;4.722;2023-07-31T10:59:12;22.50;99.90
14555;DHT22;7364;50.870;4.722;2023-07-31T11:01:53;21.90;99.90
14555;DHT22;7364;50.870;4.722;2023-07-31T11:04:25;21.60;99.90
14555;DHT22;7364;50.870;4.722;2023-07-31T11:06:56;21.80;99.90
14555;DHT22;7364;50.870;4.722;2023-07-31T11:09:27;22.00;99.90
14555;DHT22;7364;50.870;4.722;2023-07-31T11:11:55;21.70;99.90
14555;DHT22;7364;50.870;4.722;2023-07-31T11:14:23;21.60;99.90
14555;DHT22;7364;50.870;4.722;2023-07-31T11:16:50;21.80;99.90
14555;DHT22;7364;50.870;4.722;2023-07-31T11:19:23;21.90;99.90
14555;DHT22;7364;50.870;4.722;2023-07-31T11:21:51;22.00;99.90
14555;DHT22;7364;50.870;4.722;2023-07-31T11:24:19;22.10;99.90
14555;DHT22;7364;50.870;4.722;2023-07-31T11:26:50;22.20;99.90
14555;DHT22;7364;50.870;4.722;2023-07-31T11:29:17;22.20;99.90
14555;DHT22;7364;50.870;4.722;2023-07-31T11:31:45;22.10;99.90
14555;DHT22;7364;50.870;4.722;2023-07-31T11:34:13;22.10;99.90
14555;DHT22;7364;50.870;4.722;2023-07-31T11:36:53;21.90;99.90
14555;DHT22;7364;50.870;4.722;2023-07-31T11:39:20;22.00;99.90
14555;DHT22;7364;50.870;4.722;2023-07-31T11:41:47;21.80;99.90
14555;DHT22;7364;50.870;4.722;2023-07-31T11:44:15;21.90;99.90
14555;DHT22;7364;50.870;4.722;2023-07-31T11:46:42;22.10;99.90
14555;DHT22;7364;50.870;4.722;2023-07-31T11:49:10;22.20;99.90
14555;DHT22;7364;50.870;4.722;2023-07-31T11:51:37;22.50;99.90
14555;DHT22;7364;50.870;4.722;2023-07-31T11:54:06;22.70;99.90
14555;DHT22;7364;50.870;4.722;2023-07-31T11:56:34;22.80;99.90
14555;DHT22;7364;50.870;4.722;2023-07-31T11:59:02;22.70;99.90
14555;DHT22;7364;50.870;4.722;2023-07-31T12:01:31;22.50;99.90
14555;DHT22;7364;50.870;4.722;2023-07-31T12:03:59;22.20;99.90
14555;DHT22;7364;50.870;4.722;2023-07-31T12:06:33;22.30;99.90
14555;DHT22;7364;50.870;4.722;2023-07-31T12:09:03;22.50;99.90
14555;DHT22;7364;50.870;4.722;2023-07-31T12:11:42;22.10;99.90
14555;DHT22;7364;50.870;4.722;2023-07-31T12:14:19;22.20;99.90
14555;DHT22;7364;50.870;4.722;2023-07-31T12:16:47;22.40;99.90
14555;DHT22;7364;50.870;4.722;2023-07-31T12:19:14;22.20;99.90
14555;DHT22;7364;50.870;4.722;2023-07-31T12:21:41;22.60;99.90
14555;DHT22;7364;50.870;4.722;2023-07-31T12:24:09;22.90;99.90
14555;DHT22;7364;50.870;4.722;2023-07-31T12:26:37;23.20;99.90
14555;DHT22;7364;50.870;4.722;2023-07-31T12:29:07;23.60;99.90
14555;DHT22;7364;50.870;4.722;2023-07-31T12:31:34;23.50;99.90
14555;DHT22;7364;50.870;4.722;2023-07-31T12:34:02;23.30;99.90
14555;DHT22;7364;50.870;4.722;2023-07-31T12:36:29;23.50;99.90
14555;DHT22;7364;50.870;4.722;2023-07-31T12:39:05;23.60;99.90
14555;DHT22;7364;50.870;4.722;2023-07-31T12:41:32;23.60;99.90
14555;DHT22;7364;50.870;4.722;2023-07-31T12:44:01;23.50;99.90
14555;DHT22;7364;50.870;4.722;2023-07-31T12:46:28;23.50;99.90
14555;DHT22;7364;50.870;4.722;2023-07-31T12:48:56;23.40;99.90
14555;DHT22;7364;50.870;4.722;2023-07-31T12:51:23;23.10;99.90
14555;DHT22;7364;50.870;4.722;2023-07-31T12:53:50;22.90;99.90
14555;DHT22;7364;50.870;4.722;2023-07-31T12:56:18;22.60;99.90
14555;DHT22;7364;50.870;4.722;2023-07-31T12:58:45;22.50;99.90
14555;DHT22;7364;50.870;4.722;2023-07-31T13:01:14;22.30;99.90
14555;DHT22;7364;50.870;4.722;2023-07-31T13:03:42;22.30;99.90
14555;DHT22;7364;50.870;4.722;2023-07-31T13:06:09;22.20;99.90
14555;DHT22;7364;50.870;4.722;2023-07-31T13:08:36;22.10;99.90
14555;DHT22;7364;50.870;4.722;2023-07-31T13:11:04;22.00;99.90
14555;DHT22;7364;50.870;4.722;2023-07-31T13:13:31;22.00;99.90
14555;DHT22;7364;50.870;4.722;2023-07-31T13:15:59;22.30;99.90
14555;DHT22;7364;50.870;4.722;2023-07-31T13:18:28;22.40;99.90
14555;DHT22;7364;50.870;4.722;2023-07-31T13:20:55;22.30;99.90
14555;DHT22;7364;50.870;4.722;2023-07-31T13:23:22;22.20;99.90
14555;DHT22;7364;50.870;4.722;2023-07-31T13:25:49;22.10;99.90
14555;DHT22;7364;50.870;4.722;2023-07-31T13:28:16;22.10;99.90
14555;DHT22;7364;50.870;4.722;2023-07-31T13:30:43;21.80;99.90
14555;DHT22;7364;50.870;4.722;2023-07-31T13:33:12;21.60;99.90
14555;DHT22;7364;50.870;4.722;2023-07-31T13:35:40;21.70;99.90
14555;DHT22;7364;50.870;4.722;2023-07-31T13:38:07;21.90;99.90
14555;DHT22;7364;50.870;4.722;2023-07-31T13:40:35;22.00;99.90
14555;DHT22;7364;50.870;4.722;2023-07-31T13:43:02;21.60;99.90
14555;DHT22;7364;50.870;4.722;2023-07-31T13:45:29;21.50;99.90
14555;DHT22;7364;50.870;4.722;2023-07-31T13:47:57;21.40;99.90
14555;DHT22;7364;50.870;4.722;2023-07-31T13:50:24;21.10;99.90
14555;DHT22;7364;50.870;4.722;2023-07-31T13:52:52;21.00;99.90
14555;DHT22;7364;50.870;4.722;2023-07-31T13:55:20;20.60;99.90
14555;DHT22;7364;50.870;4.722;2023-07-31T13:57:48;20.40;99.90
14555;DHT22;7364;50.870;4.722;2023-07-31T14:00:15;20.40;99.90
14555;DHT22;7364;50.870;4.722;2023-07-31T14:02:43;20.30;99.90
14555;DHT22;7364;50.870;4.722;2023-07-31T14:05:10;20.10;99.90
14555;DHT22;7364;50.870;4.722;2023-07-31T14:07:37;20.00;99.90
14555;DHT22;7364;50.870;4.722;2023-07-31T14:10:06;19.70;99.90
14555;DHT22;7364;50.870;4.722;2023-07-31T14:12:34;19.70;99.90
14555;DHT22;7364;50.870;4.722;2023-07-31T14:15:01;19.70;99.90
14555;DHT22;7364;50.870;4.722;2023-07-31T14:17:29;19.70;99.90
14555;DHT22;7364;50.870;4.722;2023-07-31T14:19:57;19.60;99.90
14555;DHT22;7364;50.870;4.722;2023-07-31T14:22:28;19.40;99.90
14555;DHT22;7364;50.870;4.722;2023-07-31T14:24:56;19.40;99.90
14555;DHT22;7364;50.870;4.722;2023-07-31T14:27:24;19.50;99.90
14555;DHT22;7364;50.870;4.722;2023-07-31T14:29:52;19.40;99.90
14555;DHT22;7364;50.870;4.722;2023-07-31T14:32:19;19.50;99.90
14555;DHT22;7364;50.870;4.722;2023-07-31T14:34:47;19.40;99.90
14555;DHT22;7364;50.870;4.722;2023-07-31T14:37:14;19.40;99.90
14555;DHT22;7364;50.870;4.722;2023-07-31T14:39:42;19.40;99.90
14555;DHT22;7364;50.870;4.722;2023-07-31T14:42:10;19.50;99.90
14555;DHT22;7364;50.870;4.722;2023-07-31T14:44:38;19.50;99.90
14555;DHT22;7364;50.870;4.722;2023-07-31T14:47:06;19.50;99.90
14555;DHT22;7364;50.870;4.722;2023-07-31T14:49:33;19.40;99.90
14555;DHT22;7364;50.870;4.722;2023-07-31T14:52:01;19.40;99.90
14555;DHT22;7364;50.870;4.722;2023-07-31T14:54:29;19.40;99.90
14555;DHT22;7364;50.870;4.722;2023-07-31T14:56:56;19.40;99.90
14555;DHT22;7364;50.870;4.722;2023-07-31T14:59:23;19.40;99.90
14555;DHT22;7364;50.870;4.722;2023-07-31T15:01:52;19.50;99.90
14555;DHT22;7364;50.870;4.722;2023-07-31T15:04:20;19.50;99.90
14555;DHT22;7364;50.870;4.722;2023-07-31T15:06:48;19.50;99.90
14555;DHT22;7364;50.870;4.722;2023-07-31T15:09:15;19.60;99.90
14555;DHT22;7364;50.870;4.722;2023-07-31T15:11:42;19.50;99.90
14555;DHT22;7364;50.870;4.722;2023-07-31T15:14:09;19.30;99.90
14555;DHT22;7364;50.870;4.722;2023-07-31T15:16:36;19.40;99.90
14555;DHT22;7364;50.870;4.722;2023-07-31T15:19:04;19.40;99.90
14555;DHT22;7364;50.870;4.722;2023-07-31T15:21:32;19.30;99.90
14555;DHT22;7364;50.870;4.722;2023-07-31T15:23:59;19.20;99.90
14555;DHT22;7364;50.870;4.722;2023-07-31T15:26:26;19.20;99.90
14555;DHT22;7364;50.870;4.722;2023-07-31T15:28:57;19.10;99.90
14555;DHT22;7364;50.870;4.722;2023-07-31T15:31:27;19.10;99.90
14555;DHT22;7364;50.870;4.722;2023-07-31T15:33:54;19.20;99.90
14555;DHT22;7364;50.870;4.722;2023-07-31T15:36:23;19.30;99.90
14555;DHT22;7364;50.870;4.722;2023-07-31T15:38:50;19.20;99.90
14555;DHT22;7364;50.870;4.722;2023-07-31T15:41:18;19.20;99.90
14555;DHT22;7364;50.870;4.722;2023-07-31T15:43:45;19.30;99.90
14555;DHT22;7364;50.870;4.722;2023-07-31T15:46:13;19.30;99.90
14555;DHT22;7364;50.870;4.722;2023-07-31T15:48:40;19.20;99.90
14555;DHT22;7364;50.870;4.722;2023-07-31T15:51:08;19.20;99.90